Time;durP1;ratioP1;P1;durP2;ratioP2;P2;SDS_P1;SDS_P2;PMS_P1;PMS_P2;Temp;Humidity;BMP_temperature;BMP_pressure;BME280_temperature;BME280_humidity;BME280_pressure;Samples;Min_cycle;Max_cycle;Signal;HPM_P1;HPM_P2
2022/03/15 00:00:33;;;;;;;12.50;1.83;;;31.30;17.20;;;;;;5094576;28;20464;-66
2022/03/15 00:02:59;;;;;;;22.20;2.10;;;31.20;17.30;;;;;;5094847;28;20429;-64
2022/03/15 00:05:26;;;;;;;11.90;1.65;;;31.20;17.00;;;;;;5085494;28;20504;-65
2022/03/15 00:07:53;;;;;;;10.13;1.77;;;31.10;17.30;;;;;;5090707;28;20064;-65
2022/03/15 00:10:19;;;;;;;16.63;1.88;;;31.20;17.60;;;;;;5099269;28;20082;-65
2022/03/15 00:12:47;;;;;;;17.45;2.85;;;31.10;17.30;;;;;;5089366;28;20067;-65
2022/03/15 00:15:13;;;;;;;16.23;2.20;;;31.00;17.60;;;;;;5095243;28;20078;-66
2022/03/15 00:17:50;;;;;;;13.10;1.70;;;30.90;17.20;;;;;;5096990;28;20075;-66
2022/03/15 00:20:19;;;;;;;18.00;1.85;;;30.90;17.40;;;;;;5089481;28;20157;-65
2022/03/15 00:22:47;;;;;;;7.85;1.73;;;30.90;17.10;;;;;;5097516;28;20075;-64
2022/03/15 00:25:17;;;;;;;16.20;2.15;;;30.80;17.70;;;;;;5089882;28;20476;-64
2022/03/15 00:27:51;;;;;;;25.83;2.33;;;30.70;17.50;;;;;;5087184;28;20495;-64
2022/03/15 00:30:19;;;;;;;18.65;2.33;;;30.70;17.10;;;;;;5071075;28;20083;-66
2022/03/15 00:32:45;;;;;;;18.58;2.50;;;30.60;17.20;;;;;;5058840;28;20427;-66
2022/03/15 00:35:19;;;;;;;13.98;1.92;;;30.40;17.70;;;;;;5081072;28;20093;-64
2022/03/15 00:37:47;;;;;;;20.25;2.15;;;30.40;17.40;;;;;;5089235;28;20174;-65
2022/03/15 00:40:15;;;;;;;16.15;1.88;;;30.30;17.50;;;;;;5087330;28;20064;-63
2022/03/15 00:42:47;;;;;;;12.93;2.20;;;30.20;17.60;;;;;;5093165;28;20128;-64
2022/03/15 00:45:14;;;;;;;14.05;2.10;;;30.10;18.80;;;;;;5091023;28;20071;-64
2022/03/15 00:47:40;;;;;;;11.98;1.85;;;29.90;19.70;;;;;;5088635;28;20067;-62
2022/03/15 00:50:07;;;;;;;13.77;1.90;;;29.80;20.00;;;;;;5088360;28;20098;-63
2022/03/15 00:52:33;;;;;;;9.38;2.17;;;29.70;19.90;;;;;;5094836;28;20071;-65
2022/03/15 00:55:00;;;;;;;13.07;2.00;;;29.50;20.40;;;;;;5088372;28;20071;-63
2022/03/15 00:57:26;;;;;;;16.42;2.00;;;29.40;19.70;;;;;;5090984;28;20068;-64
2022/03/15 00:59:53;;;;;;;17.55;2.45;;;29.30;20.20;;;;;;5094730;28;20469;-65
2022/03/15 01:02:20;;;;;;;11.68;2.00;;;29.20;20.00;;;;;;5093290;28;20486;-65
2022/03/15 01:04:46;;;;;;;13.02;2.13;;;29.10;20.10;;;;;;5093062;28;20643;-63
2022/03/15 01:07:12;;;;;;;12.63;2.08;;;29.00;20.20;;;;;;5091268;28;20075;-65
2022/03/15 01:09:40;;;;;;;13.25;1.60;;;28.90;20.00;;;;;;5090079;28;20130;-63
2022/03/15 01:12:06;;;;;;;18.27;1.88;;;28.70;20.30;;;;;;5096814;28;20074;-65
2022/03/15 01:14:33;;;;;;;13.02;2.00;;;28.60;20.00;;;;;;5087026;28;20086;-65
2022/03/15 01:17:00;;;;;;;15.88;1.83;;;28.50;20.20;;;;;;5092921;28;20669;-65
2022/03/15 01:19:26;;;;;;;21.60;2.40;;;28.40;20.50;;;;;;5092869;28;20113;-64
2022/03/15 01:21:53;;;;;;;25.63;2.55;;;28.20;21.40;;;;;;5090674;28;20075;-63
2022/03/15 01:24:19;;;;;;;46.30;3.45;;;28.00;21.80;;;;;;5071675;28;20122;-63
2022/03/15 01:26:47;;;;;;;28.05;2.67;;;27.90;21.70;;;;;;5089704;28;20079;-64
2022/03/15 01:29:13;;;;;;;28.63;2.33;;;27.70;21.70;;;;;;5092544;28;20617;-63
2022/03/15 01:31:40;;;;;;;23.60;2.50;;;27.60;22.00;;;;;;5071902;28;20068;-64
2022/03/15 01:34:07;;;;;;;18.55;2.50;;;27.50;21.70;;;;;;5091589;28;20505;-63
2022/03/15 01:36:34;;;;;;;21.65;3.35;;;27.30;21.80;;;;;;5083465;28;20177;-63
2022/03/15 01:39:01;;;;;;;24.65;3.70;;;27.10;21.90;;;;;;5095294;28;20067;-64
2022/03/15 01:41:27;;;;;;;22.58;3.03;;;27.00;22.60;;;;;;5094928;28;20079;-64
2022/03/15 01:43:54;;;;;;;69.88;4.53;;;26.80;23.00;;;;;;5095133;28;20156;-64
2022/03/15 01:46:20;;;;;;;27.40;3.25;;;26.70;23.40;;;;;;5088749;28;20079;-63
2022/03/15 01:48:46;;;;;;;20.42;3.25;;;26.60;23.70;;;;;;5088146;28;20622;-62
2022/03/15 01:51:15;;;;;;;15.95;2.90;;;26.30;23.70;;;;;;5090802;28;20518;-63
2022/03/15 01:53:42;;;;;;;32.55;4.22;;;26.20;23.80;;;;;;5091629;28;20159;-64
2022/03/15 01:56:08;;;;;;;30.25;3.25;;;26.10;24.30;;;;;;5098953;28;20061;-64
2022/03/15 01:58:35;;;;;;;36.85;3.88;;;26.00;24.80;;;;;;5091753;28;20106;-65
2022/03/15 02:01:01;;;;;;;33.70;3.55;;;25.80;25.00;;;;;;5087648;28;20138;-65
2022/03/15 02:03:28;;;;;;;19.10;3.22;;;25.70;25.30;;;;;;5088536;28;20069;-63
2022/03/15 02:05:54;;;;;;;36.05;3.88;;;25.60;25.40;;;;;;5089272;28;20076;-63
2022/03/15 02:08:20;;;;;;;32.58;3.83;;;25.50;25.60;;;;;;5068689;28;20549;-64
2022/03/15 02:10:47;;;;;;;29.27;3.58;;;25.40;25.90;;;;;;5069269;28;20081;-62
2022/03/15 02:13:13;;;;;;;35.63;3.95;;;25.20;25.80;;;;;;5089945;28;20527;-64
2022/03/15 02:15:40;;;;;;;26.25;3.25;;;25.10;25.90;;;;;;5093557;28;20448;-63
2022/03/15 02:18:06;;;;;;;25.95;3.25;;;24.90;26.30;;;;;;5090732;28;20167;-63
2022/03/15 02:20:34;;;;;;;31.38;4.22;;;24.90;26.90;;;;;;5096839;28;20071;-62
2022/03/15 02:23:00;;;;;;;29.08;3.53;;;24.80;27.10;;;;;;5097793;28;20163;-65
2022/03/15 02:25:27;;;;;;;29.05;3.58;;;24.70;27.20;;;;;;5088959;28;20101;-65
2022/03/15 02:27:53;;;;;;;25.17;3.40;;;24.50;27.30;;;;;;5096453;28;20631;-63
2022/03/15 02:30:21;;;;;;;31.75;3.72;;;24.40;27.30;;;;;;5098217;28;20115;-65
2022/03/15 02:32:48;;;;;;;31.85;3.40;;;24.30;27.70;;;;;;5106349;28;20414;-63
2022/03/15 02:35:17;;;;;;;37.80;5.13;;;24.20;27.90;;;;;;5096948;28;20088;-63
2022/03/15 02:37:43;;;;;;;32.65;4.25;;;24.10;28.00;;;;;;5090835;28;20080;-62
2022/03/15 02:40:10;;;;;;;22.02;3.85;;;24.10;28.20;;;;;;5073877;28;20077;-62
2022/03/15 02:42:37;;;;;;;22.30;3.53;;;24.00;28.30;;;;;;5098458;28;20467;-64
2022/03/15 02:45:04;;;;;;;21.92;3.72;;;23.90;28.60;;;;;;5072423;28;20068;-64
2022/03/15 02:47:30;;;;;;;31.20;3.95;;;23.80;28.80;;;;;;5100507;28;20138;-65
2022/03/15 02:49:57;;;;;;;23.63;4.20;;;23.70;28.80;;;;;;5062893;28;20083;-64
2022/03/15 02:52:28;;;;;;;23.50;4.50;;;23.70;28.80;;;;;;5099686;28;20068;-62
2022/03/15 02:54:55;;;;;;;33.22;4.25;;;23.60;28.80;;;;;;5073005;28;20156;-63
2022/03/15 02:57:23;;;;;;;34.47;5.03;;;23.50;29.10;;;;;;5073980;28;20077;-63
2022/03/15 02:59:49;;;;;;;39.47;5.47;;;23.40;29.20;;;;;;5074772;28;20168;-64
2022/03/15 03:02:16;;;;;;;35.38;5.90;;;23.40;29.60;;;;;;5072269;28;20082;-64
2022/03/15 03:04:42;;;;;;;39.38;5.55;;;23.30;29.70;;;;;;5097190;28;20083;-66
2022/03/15 03:07:09;;;;;;;49.55;6.80;;;23.20;29.80;;;;;;5095703;28;20067;-62
2022/03/15 03:09:35;;;;;;;41.05;6.03;;;23.10;29.80;;;;;;5095499;28;20549;-66
2022/03/15 03:12:02;;;;;;;49.95;7.95;;;23.10;29.80;;;;;;5090386;28;20072;-62
2022/03/15 03:14:29;;;;;;;47.45;7.10;;;23.10;30.20;;;;;;5095232;28;20118;-64
2022/03/15 03:16:55;;;;;;;84.90;8.02;;;23.10;30.30;;;;;;5096359;28;20075;-63
2022/03/15 03:19:23;;;;;;;60.00;8.40;;;23.00;30.30;;;;;;5096785;28;20075;-64
2022/03/15 03:21:50;;;;;;;46.55;6.80;;;22.90;30.90;;;;;;5095379;27;20081;-63
2022/03/15 03:24:24;;;;;;;46.67;6.35;;;22.90;31.20;;;;;;5094548;28;20183;-64
2022/03/15 03:26:50;;;;;;;40.58;6.75;;;22.90;31.40;;;;;;5091587;28;20590;-64
2022/03/15 03:29:17;;;;;;;43.78;5.85;;;22.80;31.20;;;;;;5095196;28;20572;-64
2022/03/15 03:31:44;;;;;;;51.25;7.82;;;22.80;31.60;;;;;;5094444;28;20069;-62
2022/03/15 03:34:12;;;;;;;48.75;7.97;;;22.80;31.70;;;;;;5088492;28;20168;-63
2022/03/15 03:36:39;;;;;;;51.17;8.27;;;22.70;31.80;;;;;;5088318;28;20533;-64
2022/03/15 03:39:07;;;;;;;40.90;7.80;;;22.70;31.80;;;;;;5087267;28;20072;-65
2022/03/15 03:41:34;;;;;;;44.58;7.80;;;22.60;31.60;;;;;;5095898;28;20073;-63
2022/03/15 03:44:00;;;;;;;31.80;8.98;;;22.50;31.10;;;;;;5094946;28;20097;-63
2022/03/15 03:46:27;;;;;;;58.78;9.02;;;22.50;30.90;;;;;;5093408;28;20084;-64
2022/03/15 03:48:55;;;;;;;37.67;8.82;;;22.40;30.80;;;;;;5091199;28;20088;-64
2022/03/15 03:51:22;;;;;;;30.88;8.98;;;22.30;30.80;;;;;;5100036;27;20138;-64
2022/03/15 03:53:48;;;;;;;47.08;10.25;;;22.20;30.70;;;;;;5095603;28;20077;-64
2022/03/15 03:56:15;;;;;;;44.67;8.80;;;22.20;31.10;;;;;;5095395;28;20183;-63
2022/03/15 03:58:41;;;;;;;41.60;8.35;;;22.20;31.60;;;;;;5096570;28;20074;-65
2022/03/15 04:01:08;;;;;;;44.53;9.05;;;22.10;31.80;;;;;;5089920;28;20096;-63
2022/03/15 04:03:34;;;;;;;49.80;8.48;;;22.00;32.30;;;;;;5097291;28;20165;-63
2022/03/15 04:06:09;;;;;;;51.72;9.98;;;22.00;32.40;;;;;;5088598;28;20445;-65
2022/03/15 04:08:35;;;;;;;39.13;10.38;;;21.90;32.30;;;;;;5101044;28;20172;-65
2022/03/15 04:11:02;;;;;;;74.32;17.38;;;21.90;32.80;;;;;;5093676;28;20130;-65
2022/03/15 04:13:28;;;;;;;67.05;20.70;;;21.80;33.10;;;;;;5089976;28;20072;-64
2022/03/15 04:15:55;;;;;;;86.47;26.38;;;21.80;33.40;;;;;;5086670;28;20126;-65
2022/03/15 04:18:21;;;;;;;77.65;22.17;;;21.80;33.40;;;;;;5071293;28;20545;-65
2022/03/15 04:20:47;;;;;;;97.07;24.95;;;21.60;33.50;;;;;;5093536;28;20449;-64
2022/03/15 04:23:14;;;;;;;70.13;22.20;;;21.70;33.70;;;;;;5094430;28;20077;-63
2022/03/15 04:25:41;;;;;;;84.80;23.15;;;21.60;33.80;;;;;;5091946;28;20100;-65
2022/03/15 04:28:07;;;;;;;78.45;22.42;;;21.50;34.20;;;;;;5094791;28;20077;-62
2022/03/15 04:30:34;;;;;;;73.45;21.90;;;21.50;34.90;;;;;;5094261;28;20077;-63
2022/03/15 04:33:01;;;;;;;81.35;21.25;;;21.40;34.50;;;;;;5094240;28;20076;-64
2022/03/15 04:35:29;;;;;;;86.55;22.23;;;21.30;34.50;;;;;;5096617;28;20080;-64
2022/03/15 04:37:56;;;;;;;81.45;21.45;;;21.30;34.60;;;;;;5084208;28;20076;-66
2022/03/15 04:40:22;;;;;;;80.57;20.83;;;21.20;35.20;;;;;;5090218;28;20073;-66
2022/03/15 04:42:49;;;;;;;72.40;19.70;;;21.20;35.30;;;;;;5090551;28;20119;-64
2022/03/15 04:45:15;;;;;;;75.47;20.73;;;21.20;35.50;;;;;;5051769;28;20824;-64
2022/03/15 04:47:42;;;;;;;80.82;20.42;;;21.10;35.70;;;;;;5097040;28;20133;-64
2022/03/15 04:50:10;;;;;;;95.78;20.63;;;21.10;36.40;;;;;;5090077;28;20092;-64
2022/03/15 04:52:36;;;;;;;91.43;20.77;;;21.10;36.50;;;;;;5088837;28;20602;-65
2022/03/15 04:55:07;;;;;;;90.57;21.88;;;21.00;36.30;;;;;;5108566;28;20072;-64
2022/03/15 04:57:34;;;;;;;105.15;23.33;;;21.00;35.50;;;;;;5089189;28;20065;-65
2022/03/15 05:00:00;;;;;;;96.40;21.73;;;20.90;35.50;;;;;;5093253;28;20073;-64
2022/03/15 05:02:27;;;;;;;97.40;20.15;;;20.90;35.80;;;;;;5088759;28;20545;-63
2022/03/15 05:04:53;;;;;;;98.13;19.95;;;20.80;35.70;;;;;;5088350;28;20087;-65
2022/03/15 05:07:20;;;;;;;75.00;17.63;;;20.80;35.80;;;;;;5086343;28;20069;-64
2022/03/15 05:12:32;;;;;;;227.75;25.27;;;20.70;35.40;;;;;;5088516;28;20576;-64
2022/03/15 05:14:58;;;;;;;212.98;23.83;;;20.70;35.10;;;;;;5087122;28;20552;-63
2022/03/15 05:17:25;;;;;;;207.73;22.58;;;20.60;35.30;;;;;;5090299;28;20527;-68
2022/03/15 05:19:52;;;;;;;939.55;73.40;;;20.60;35.30;;;;;;5088884;28;20630;-64
2022/03/15 05:22:18;;;;;;;1153.43;102.10;;;20.60;35.30;;;;;;5087555;28;20101;-65
2022/03/15 05:24:44;;;;;;;264.48;29.70;;;20.60;35.70;;;;;;5087741;28;20117;-65
2022/03/15 05:27:11;;;;;;;184.98;26.20;;;20.60;36.00;;;;;;5088146;28;20584;-63
2022/03/15 05:29:38;;;;;;;124.50;22.40;;;20.80;36.10;;;;;;5085347;28;20096;-59
2022/03/15 05:32:04;;;;;;;;;;;21.00;36.00;;;;;;5087140;28;20076;-61
2022/03/15 05:34:30;;;;;;;104.38;21.27;;;21.10;35.90;;;;;;5087774;28;19956;-63
2022/03/15 05:36:56;;;;;;;81.13;19.67;;;21.20;35.50;;;;;;5087873;28;20534;-63
2022/03/15 05:39:23;;;;;;;93.80;21.92;;;21.20;35.40;;;;;;5087262;28;20130;-59
2022/03/15 05:41:49;;;;;;;96.70;21.05;;;21.20;35.40;;;;;;5087726;28;20072;-60
2022/03/15 05:44:15;;;;;;;;;;;21.30;35.30;;;;;;5089041;28;20073;-61
2022/03/15 05:46:42;;;;;;;74.75;19.90;;;21.10;35.50;;;;;;5088642;28;20325;-60
2022/03/15 05:49:08;;;;;;;87.13;21.50;;;21.10;35.60;;;;;;5090952;28;20154;-62
2022/03/15 05:51:34;;;;;;;69.85;19.88;;;21.00;35.70;;;;;;5074796;28;20165;-58
2022/03/15 05:54:01;;;;;;;81.40;20.80;;;20.90;35.80;;;;;;5090840;28;20084;-62
2022/03/15 05:56:28;;;;;;;75.45;19.75;;;20.90;36.50;;;;;;5090399;28;20483;-59
2022/03/15 05:58:54;;;;;;;89.78;21.02;;;20.90;36.60;;;;;;5092740;28;20272;-60
2022/03/15 06:01:21;;;;;;;80.25;18.77;;;20.90;36.50;;;;;;5094468;28;20080;-62
2022/03/15 06:03:47;;;;;;;;;;;20.80;36.60;;;;;;5094558;28;20145;-62
2022/03/15 06:06:13;;;;;;;72.43;18.48;;;20.90;36.80;;;;;;5096037;28;20090;-62
2022/03/15 06:08:39;;;;;;;83.60;20.08;;;20.90;36.80;;;;;;5097442;28;20187;-59
2022/03/15 06:11:06;;;;;;;86.20;19.30;;;20.70;36.80;;;;;;5089072;28;20126;-58
2022/03/15 06:13:33;;;;;;;85.63;18.63;;;20.60;36.90;;;;;;5089621;28;20411;-61
2022/03/15 06:15:59;;;;;;;;;;;20.60;37.20;;;;;;5095374;28;20538;-60
2022/03/15 06:18:25;;;;;;;88.47;21.20;;;20.60;37.30;;;;;;5096778;28;20033;-59
2022/03/15 06:20:51;;;;;;;;;;;20.50;37.70;;;;;;5097973;28;20111;-59
2022/03/15 06:23:20;;;;;;;84.82;21.17;;;20.50;37.90;;;;;;5092973;28;19988;-60
2022/03/15 06:25:46;;;;;;;90.47;21.88;;;20.40;37.70;;;;;;5094750;28;20112;-60
2022/03/15 06:28:13;;;;;;;77.75;20.95;;;20.40;38.30;;;;;;5095012;28;20077;-59
2022/03/15 06:30:40;;;;;;;71.85;21.20;;;20.40;38.30;;;;;;5093807;28;20065;-62
2022/03/15 06:33:07;;;;;;;72.15;19.60;;;20.30;38.10;;;;;;5095749;28;20072;-61
2022/03/15 06:35:34;;;;;;;75.32;19.83;;;20.20;37.90;;;;;;5093443;28;20109;-62
2022/03/15 06:38:01;;;;;;;73.70;19.42;;;20.10;37.70;;;;;;5071525;28;20073;-60
2022/03/15 06:40:29;;;;;;;87.80;19.40;;;20.10;37.80;;;;;;5076924;28;20075;-62
2022/03/15 06:42:56;;;;;;;75.47;21.25;;;20.00;37.90;;;;;;5093500;28;20073;-59
2022/03/15 06:45:23;;;;;;;66.25;17.20;;;20.10;38.10;;;;;;5093101;28;20163;-61
2022/03/15 06:47:50;;;;;;;60.85;17.70;;;20.00;38.00;;;;;;5098465;28;20081;-62
2022/03/15 06:50:17;;;;;;;61.78;17.48;;;20.00;38.00;;;;;;5092581;28;20134;-62
2022/03/15 06:52:44;;;;;;;74.15;17.08;;;19.90;38.10;;;;;;5093518;28;20100;-59
2022/03/15 06:55:13;;;;;;;65.90;17.10;;;19.70;38.30;;;;;;5093825;28;20122;-60
2022/03/15 06:57:40;;;;;;;77.68;16.88;;;19.70;38.50;;;;;;5098584;28;20087;-59
2022/03/15 07:00:10;;;;;;;64.05;16.38;;;19.60;38.70;;;;;;5092607;28;20177;-60
2022/03/15 07:02:36;;;;;;;59.65;16.33;;;19.60;38.90;;;;;;5092884;28;20068;-63
2022/03/15 07:05:03;;;;;;;62.67;16.05;;;19.60;39.10;;;;;;5094788;28;20080;-61
2022/03/15 07:07:30;;;;;;;60.72;16.50;;;19.50;39.30;;;;;;5094622;28;20080;-63
2022/03/15 07:09:56;;;;;;;70.57;16.90;;;19.40;39.50;;;;;;5094779;28;20096;-60
2022/03/15 07:12:26;;;;;;;56.22;15.32;;;19.40;39.60;;;;;;5095845;28;20072;-59
2022/03/15 07:14:53;;;;;;;64.95;17.38;;;19.40;39.60;;;;;;5095203;28;20419;-61
2022/03/15 07:17:20;;;;;;;79.97;17.70;;;19.30;39.80;;;;;;5077989;28;20072;-61
2022/03/15 07:19:47;;;;;;;76.85;17.67;;;19.40;40.20;;;;;;5096877;28;20427;-58
2022/03/15 07:22:13;;;;;;;64.25;17.35;;;19.40;40.70;;;;;;5093466;28;20104;-61
2022/03/15 07:24:39;;;;;;;78.78;18.90;;;19.30;40.20;;;;;;5057562;28;20136;-62
2022/03/15 07:27:06;;;;;;;72.38;17.90;;;19.20;40.40;;;;;;5074488;28;20459;-59
2022/03/15 07:29:32;;;;;;;74.35;18.10;;;19.20;40.40;;;;;;5091938;28;20581;-61
2022/03/15 07:31:59;;;;;;;61.83;16.98;;;19.10;40.60;;;;;;5094117;28;20132;-61
2022/03/15 07:34:25;;;;;;;70.03;16.67;;;19.10;40.70;;;;;;5092584;28;20537;-61
2022/03/15 07:36:52;;;;;;;61.40;17.88;;;19.00;40.70;;;;;;5093627;28;20103;-60
2022/03/15 07:39:19;;;;;;;73.20;17.85;;;19.00;41.20;;;;;;5094557;28;20083;-63
2022/03/15 07:41:46;;;;;;;84.50;17.00;;;19.00;40.90;;;;;;5093632;28;20529;-58
2022/03/15 07:44:13;;;;;;;68.45;17.58;;;18.90;41.00;;;;;;5094083;28;20514;-57
2022/03/15 07:46:48;;;;;;;68.03;16.33;;;18.90;41.20;;;;;;5093212;28;20072;-60
2022/03/15 07:49:21;;;;;;;71.25;16.88;;;18.80;41.40;;;;;;5093260;28;20127;-63
2022/03/15 07:51:49;;;;;;;72.18;17.48;;;18.80;41.60;;;;;;5092643;28;20129;-62
2022/03/15 07:54:16;;;;;;;81.25;17.83;;;18.80;41.80;;;;;;5091039;28;20080;-62
2022/03/15 07:56:43;;;;;;;77.38;17.85;;;18.70;41.80;;;;;;5094345;28;20477;-62
2022/03/15 07:59:10;;;;;;;63.00;16.98;;;18.70;41.90;;;;;;5077362;28;20438;-58
2022/03/15 08:01:37;;;;;;;57.08;16.00;;;18.70;41.90;;;;;;5073107;28;20553;-59
2022/03/15 08:04:04;;;;;;;78.32;17.55;;;18.60;42.00;;;;;;5092342;28;20103;-62
2022/03/15 08:06:30;;;;;;;58.28;16.60;;;18.60;42.10;;;;;;5092435;28;20084;-62
2022/03/15 08:08:58;;;;;;;70.88;15.85;;;18.50;42.30;;;;;;5093616;28;20098;-62
2022/03/15 08:11:26;;;;;;;73.50;16.73;;;18.50;42.50;;;;;;5095795;28;20076;-60
2022/03/15 08:13:54;;;;;;;68.75;16.75;;;18.40;42.70;;;;;;5091192;28;20072;-61
2022/03/15 08:16:23;;;;;;;85.95;17.80;;;18.40;42.90;;;;;;5093645;28;20563;-59
2022/03/15 08:18:51;;;;;;;68.90;17.50;;;18.50;43.20;;;;;;5094050;28;20079;-59
2022/03/15 08:21:18;;;;;;;74.47;16.63;;;18.40;43.10;;;;;;5089538;28;20162;-58
2022/03/15 08:23:46;;;;;;;73.72;17.75;;;18.40;43.30;;;;;;5093327;28;20541;-60
2022/03/15 08:26:14;;;;;;;63.95;16.02;;;18.30;43.50;;;;;;5092524;28;20079;-60
2022/03/15 08:28:41;;;;;;;78.10;17.65;;;18.30;43.50;;;;;;5089048;28;20205;-58
2022/03/15 08:31:07;;;;;;;63.85;15.23;;;18.30;43.30;;;;;;5094493;28;20162;-62
2022/03/15 08:33:34;;;;;;;58.78;14.90;;;18.20;43.30;;;;;;5092329;28;20537;-61
2022/03/15 08:36:01;;;;;;;56.95;14.75;;;18.20;43.50;;;;;;5092607;28;20943;-59
2022/03/15 08:38:28;;;;;;;56.58;13.57;;;18.20;43.40;;;;;;5093077;28;20064;-60
2022/03/15 08:40:56;;;;;;;47.20;13.38;;;18.10;43.50;;;;;;5091319;28;20076;-60
2022/03/15 08:43:24;;;;;;;49.28;13.18;;;18.00;43.40;;;;;;5092014;28;20079;-59
2022/03/15 08:45:51;;;;;;;55.63;13.98;;;18.00;43.50;;;;;;5090286;28;20068;-62
2022/03/15 08:48:17;;;;;;;58.75;13.88;;;18.00;43.60;;;;;;5092077;28;20552;-57
2022/03/15 08:50:44;;;;;;;52.38;14.00;;;17.90;44.30;;;;;;5091947;28;20069;-62
2022/03/15 08:53:10;;;;;;;56.67;13.55;;;17.80;44.00;;;;;;5095170;28;20129;-60
2022/03/15 08:55:37;;;;;;;55.30;13.73;;;17.80;44.00;;;;;;5091333;28;20064;-58
2022/03/15 08:58:03;;;;;;;;;;;17.80;43.90;;;;;;5094323;28;20063;-62
2022/03/15 09:00:29;;;;;;;68.75;15.90;;;17.80;43.80;;;;;;5091450;28;20013;-59
2022/03/15 09:02:56;;;;;;;66.45;16.85;;;17.70;43.70;;;;;;5091422;28;20162;-56
2022/03/15 09:05:22;;;;;;;81.43;19.40;;;17.70;43.90;;;;;;5090644;28;20080;-58
2022/03/15 09:07:53;;;;;;;83.47;20.98;;;17.60;43.80;;;;;;5090890;28;20156;-58
2022/03/15 09:10:23;;;;;;;102.50;22.60;;;17.60;43.80;;;;;;5088651;28;20100;-57
2022/03/15 09:12:52;;;;;;;114.18;25.08;;;17.60;43.60;;;;;;5089170;28;20101;-57
2022/03/15 09:15:20;;;;;;;101.40;24.92;;;17.60;43.50;;;;;;5091843;28;20411;-58
2022/03/15 09:17:46;;;;;;;93.68;25.40;;;17.60;43.60;;;;;;5075764;28;20076;-57
2022/03/15 09:20:13;;;;;;;146.52;28.33;;;17.50;43.30;;;;;;5089589;28;20077;-59
2022/03/15 09:22:40;;;;;;;120.28;27.77;;;17.40;43.10;;;;;;5091240;28;20080;-59
2022/03/15 09:25:07;;;;;;;134.40;31.10;;;17.50;43.10;;;;;;5092098;28;20470;-58
2022/03/15 09:27:34;;;;;;;126.18;31.60;;;17.50;42.70;;;;;;5090694;28;20144;-60
2022/03/15 09:30:01;;;;;;;152.55;33.30;;;17.40;42.30;;;;;;5091427;28;20085;-58
2022/03/15 09:32:28;;;;;;;130.75;31.67;;;17.30;42.30;;;;;;5094574;28;20076;-60
2022/03/15 09:34:56;;;;;;;147.80;34.55;;;17.30;42.40;;;;;;5093050;28;20167;-62
2022/03/15 09:37:23;;;;;;;149.13;36.17;;;17.40;42.70;;;;;;5092070;28;20545;-63
2022/03/15 09:39:52;;;;;;;127.03;32.63;;;17.40;42.90;;;;;;5088067;28;20581;-61
2022/03/15 09:42:20;;;;;;;158.45;33.47;;;17.30;42.70;;;;;;5089044;28;20076;-61
2022/03/15 09:44:48;;;;;;;154.40;35.92;;;17.30;43.00;;;;;;5089075;28;20096;-59
2022/03/15 09:47:17;;;;;;;117.82;32.28;;;17.30;43.20;;;;;;5090918;28;20510;-59
2022/03/15 09:49:45;;;;;;;140.77;34.15;;;17.30;43.70;;;;;;5089420;28;20625;-58
2022/03/15 09:52:12;;;;;;;132.60;33.85;;;17.30;44.00;;;;;;5092315;28;20080;-60
2022/03/15 09:54:39;;;;;;;137.50;32.95;;;17.20;44.10;;;;;;5090000;28;20114;-62
2022/03/15 09:57:07;;;;;;;153.88;34.55;;;17.20;44.10;;;;;;5092602;28;20079;-60
2022/03/15 09:59:34;;;;;;;172.55;33.95;;;17.20;44.30;;;;;;5094111;28;20127;-59
2022/03/15 10:02:00;;;;;;;135.55;31.63;;;17.20;44.50;;;;;;5090284;28;20415;-61
2022/03/15 10:04:27;;;;;;;;;;;17.10;44.60;;;;;;5093964;28;20080;-60
2022/03/15 10:06:54;;;;;;;152.25;32.45;;;17.10;44.40;;;;;;5091044;28;19963;-63
2022/03/15 10:09:22;;;;;;;137.80;30.80;;;17.00;44.30;;;;;;5090998;28;20170;-58
2022/03/15 10:11:50;;;;;;;131.95;32.22;;;17.00;44.50;;;;;;5093854;28;20069;-62
2022/03/15 10:14:19;;;;;;;124.63;30.92;;;16.90;44.30;;;;;;5091680;28;20072;-59
2022/03/15 10:16:47;;;;;;;144.48;33.30;;;16.80;44.30;;;;;;5092784;28;20100;-61
2022/03/15 10:19:14;;;;;;;147.93;35.30;;;16.80;44.40;;;;;;5089449;28;20471;-63
2022/03/15 10:21:55;;;;;;;142.38;34.97;;;16.70;44.30;;;;;;5090110;28;20077;-58
2022/03/15 10:24:23;;;;;;;143.02;35.65;;;16.60;44.40;;;;;;5087757;28;20598;-60
2022/03/15 10:26:55;;;;;;;157.93;37.35;;;16.60;44.50;;;;;;5090339;28;20163;-59
2022/03/15 10:29:24;;;;;;;150.75;38.30;;;16.60;44.70;;;;;;5072544;28;20478;-56
2022/03/15 10:31:51;;;;;;;156.02;36.10;;;16.60;44.50;;;;;;5089948;28;20068;-61
2022/03/15 10:34:19;;;;;;;140.90;36.05;;;16.60;44.60;;;;;;5091405;28;20100;-62
2022/03/15 10:36:51;;;;;;;131.88;34.05;;;16.50;44.60;;;;;;5093313;28;20534;-61
2022/03/15 10:39:20;;;;;;;146.90;37.65;;;16.50;44.70;;;;;;5095099;28;20171;-61
2022/03/15 10:41:52;;;;;;;139.25;35.45;;;16.40;44.80;;;;;;5097437;28;20086;-60
2022/03/15 10:44:22;;;;;;;142.48;37.33;;;16.40;45.00;;;;;;5073547;28;20138;-57
2022/03/15 10:47:18;;;;;;;156.93;37.55;;;16.40;45.20;;;;;;5088275;28;20737;-57
2022/03/15 10:49:49;;;;;;;147.77;35.60;;;16.40;45.20;;;;;;5054407;28;20618;-59
2022/03/15 10:52:41;;;;;;;167.63;39.55;;;16.30;45.10;;;;;;5093007;28;20077;-61
2022/03/15 10:55:25;;;;;;;137.00;36.53;;;16.30;45.50;;;;;;5093397;28;20556;-59
2022/03/15 10:57:51;;;;;;;130.10;38.00;;;16.30;45.30;;;;;;5092630;28;20096;-60
2022/03/15 11:00:19;;;;;;;;;;;16.30;45.40;;;;;;5094361;28;20171;-62
2022/03/15 11:02:46;;;;;;;;;;;16.20;45.40;;;;;;5092094;28;19960;-59
2022/03/15 11:05:14;;;;;;;134.82;37.47;;;16.20;45.50;;;;;;5092962;28;19971;-57
2022/03/15 11:07:41;;;;;;;148.63;38.97;;;16.20;45.70;;;;;;5095008;28;20591;-62
2022/03/15 11:10:13;;;;;;;157.90;38.90;;;16.20;46.10;;;;;;5095445;28;20562;-59
2022/03/15 11:13:02;;;;;;;134.90;38.15;;;16.20;45.80;;;;;;5096606;28;20069;-58
2022/03/15 11:15:34;;;;;;;135.52;36.83;;;16.10;45.80;;;;;;5093141;28;20069;-62
2022/03/15 11:18:05;;;;;;;131.77;38.65;;;16.10;45.90;;;;;;5087667;28;20075;-58
2022/03/15 11:20:38;;;;;;;140.27;38.28;;;16.10;46.00;;;;;;5094298;28;20087;-58
2022/03/15 11:23:10;;;;;;;162.65;40.38;;;16.10;46.20;;;;;;5092496;28;20519;-60
2022/03/15 11:25:38;;;;;;;138.00;38.80;;;16.10;46.70;;;;;;5092272;28;20104;-61
2022/03/15 11:28:12;;;;;;;142.23;39.30;;;16.10;46.60;;;;;;5093915;28;20177;-61
2022/03/15 11:30:39;;;;;;;140.60;38.10;;;16.10;46.90;;;;;;5090580;28;20096;-61
2022/03/15 11:33:09;;;;;;;157.32;39.72;;;16.10;46.80;;;;;;5075640;28;20077;-59
2022/03/15 11:35:38;;;;;;;149.30;39.25;;;16.00;46.70;;;;;;5096891;28;20188;-61
2022/03/15 11:38:09;;;;;;;136.50;38.50;;;15.90;46.70;;;;;;5094304;28;20061;-60
2022/03/15 11:40:36;;;;;;;155.23;39.17;;;15.90;47.00;;;;;;5094819;27;20334;-61
2022/03/15 11:43:40;;;;;;;130.45;37.97;;;16.00;47.40;;;;;;5090956;28;20441;-58
2022/03/15 11:46:16;;;;;;;144.88;39.40;;;15.90;47.00;;;;;;5094430;28;20079;-61
2022/03/15 11:48:54;;;;;;;154.90;39.22;;;15.90;46.70;;;;;;5091180;28;20588;-59
2022/03/15 11:51:26;;;;;;;138.00;39.90;;;15.90;46.80;;;;;;5090106;28;20076;-59
2022/03/15 11:53:52;;;;;;;160.40;39.03;;;15.90;47.20;;;;;;5092463;28;20073;-61
2022/03/15 11:56:37;;;;;;;119.95;38.13;;;15.90;47.50;;;;;;5093458;28;20080;-60
2022/03/15 11:59:03;;;;;;;135.02;39.22;;;15.80;47.40;;;;;;5093177;28;20108;-59
2022/03/15 12:01:31;;;;;;;146.65;38.03;;;15.70;47.60;;;;;;5094126;28;20068;-59
2022/03/15 12:03:59;;;;;;;154.45;38.78;;;15.70;47.60;;;;;;5090666;28;20077;-59
2022/03/15 12:06:28;;;;;;;134.30;36.78;;;15.60;47.60;;;;;;5094859;28;20107;-60
2022/03/15 12:09:00;;;;;;;125.35;36.60;;;15.60;47.60;;;;;;5074569;28;20097;-62
2022/03/15 12:11:35;;;;;;;134.68;36.05;;;15.60;47.60;;;;;;5092801;28;20514;-61
2022/03/15 12:14:31;;;;;;;141.32;40.05;;;15.60;47.70;;;;;;5095728;28;20532;-62
2022/03/15 12:16:57;;;;;;;139.88;38.22;;;15.50;48.10;;;;;;5092828;28;20075;-61
2022/03/15 12:19:39;;;;;;;129.18;36.83;;;15.50;48.40;;;;;;5090911;28;20076;-58
2022/03/15 12:22:09;;;;;;;147.65;40.58;;;15.40;48.20;;;;;;5091242;28;20163;-59
2022/03/15 12:24:46;;;;;;;130.18;35.28;;;15.40;48.20;;;;;;5074637;28;20650;-63
2022/03/15 12:27:18;;;;;;;134.23;36.83;;;15.40;48.30;;;;;;5093552;28;20076;-63
2022/03/15 12:29:55;;;;;;;126.15;39.40;;;15.40;48.20;;;;;;5093715;28;20179;-63
2022/03/15 12:32:23;;;;;;;147.77;39.17;;;15.40;48.50;;;;;;5093602;28;20068;-61
2022/03/15 12:34:55;;;;;;;125.95;36.42;;;15.40;48.40;;;;;;5092764;28;20079;-59
2022/03/15 12:37:39;;;;;;;139.85;37.63;;;15.40;48.20;;;;;;5090984;28;20164;-60